createdAt,value
2022-09-15T00:00:24.253Z,99015.25
2022-09-15T00:01:15.415Z,99013.63
2022-09-15T00:02:07.988Z,99015.25
2022-09-15T00:03:00.037Z,99012.41
2022-09-15T00:03:51.555Z,99015.25
2022-09-15T00:04:48.506Z,99015.06
2022-09-15T00:05:40.397Z,99019.44
2022-09-15T00:06:32.800Z,99023.09
2022-09-15T00:07:23.866Z,99013.22
2022-09-15T00:08:21.001Z,99016.47
2022-09-15T00:09:14.256Z,99022.63
2022-09-15T00:10:08.183Z,99019.97
2022-09-15T00:11:04.381Z,99017.00
2022-09-15T00:11:55.570Z,99017.00
2022-09-15T00:12:47.460Z,99011.94
2022-09-15T00:13:41.102Z,99021.63
2022-09-15T00:14:33.736Z,99018.97
2022-09-15T00:15:33.374Z,99022.63
2022-09-15T00:16:26.425Z,99019.31
2022-09-15T00:17:18.337Z,99021.81
2022-09-15T00:18:09.813Z,99012.75
2022-09-15T00:19:00.787Z,99013.97
2022-09-15T00:19:56.944Z,99017.94
2022-09-15T00:20:50.412Z,99021.81
2022-09-15T00:21:40.676Z,99022.81
2022-09-15T00:22:30.392Z,99019.50
2022-09-15T00:23:20.368Z,99016.66
2022-09-15T00:24:08.978Z,99014.63
2022-09-15T00:25:05.758Z,99016.47
2022-09-15T00:26:01.470Z,99012.13
2022-09-15T00:26:52.704Z,99011.94
2022-09-15T00:27:40.628Z,99010.25
2022-09-15T00:28:31.517Z,99009.78
2022-09-15T00:29:24.376Z,99003.63
2022-09-15T00:30:17.105Z,99010.25
2022-09-15T00:31:09.352Z,99007.94
2022-09-15T00:32:01.341Z,99004.63
2022-09-15T00:32:54.826Z,99004.25
2022-09-15T00:33:47.984Z,99000.78
2022-09-15T00:34:41.011Z,99007.59
2022-09-15T00:36:35.194Z,99005.25
2022-09-15T00:37:25.667Z,99004.25
2022-09-15T00:38:18.952Z,99011.28
2022-09-15T00:39:10.938Z,99008.63
2022-09-15T00:40:03.287Z,99012.94
2022-09-15T00:41:06.912Z,99014.63
2022-09-15T00:41:59.221Z,99016.66
2022-09-15T00:42:53.088Z,99016.47
2022-09-15T00:43:55.664Z,99016.47
2022-09-15T00:45:07.971Z,99009.44
2022-09-15T00:46:04.194Z,99013.97
2022-09-15T00:47:09.670Z,99007.59
2022-09-15T00:48:00.638Z,99013.28
2022-09-15T00:48:51.399Z,99011.28
2022-09-15T00:49:41.653Z,99017.66
2022-09-15T00:50:31.620Z,99010.44
2022-09-15T00:51:25.942Z,99013.78
2022-09-15T00:52:34.409Z,99015.78
2022-09-15T00:53:26.209Z,99014.31
2022-09-15T00:54:16.695Z,99015.63
2022-09-15T00:55:14.746Z,99009.63
2022-09-15T00:56:04.974Z,99016.66
2022-09-15T00:56:58.690Z,99011.94
2022-09-15T00:57:52.658Z,99010.25
2022-09-15T00:58:48.039Z,99008.78
2022-09-15T00:59:39.122Z,99014.63
2022-09-15T01:00:30.133Z,99008.63
2022-09-15T01:01:24.346Z,99011.94
2022-09-15T01:02:15.884Z,99008.44
2022-09-15T01:03:07.457Z,99017.28
2022-09-15T01:03:55.262Z,99017.47
2022-09-15T01:04:47.647Z,99011.94
2022-09-15T01:05:44.224Z,99014.78
2022-09-15T01:06:35.641Z,99008.25
2022-09-15T01:07:26.803Z,99012.94
2022-09-15T01:08:22.464Z,99018.00
2022-09-15T01:09:18.047Z,99014.16
2022-09-15T01:10:06.590Z,99009.44
2022-09-15T01:11:00.474Z,99020.16
2022-09-15T01:11:52.903Z,99015.31
2022-09-15T01:12:46.137Z,99012.47
2022-09-15T01:13:38.047Z,99013.69
2022-09-15T01:14:30.702Z,99012.47
2022-09-15T01:15:23.749Z,99009.78
2022-09-15T01:16:37.980Z,99015.63
2022-09-15T01:17:26.243Z,99015.63
2022-09-15T01:18:31.081Z,99012.81
2022-09-15T01:19:19.396Z,99017.19
2022-09-15T01:20:18.717Z,99011.66
2022-09-15T01:21:05.071Z,99019.31
2022-09-15T01:21:58.743Z,99016.66
2022-09-15T01:22:48.330Z,99013.47
2022-09-15T01:23:32.882Z,99014.16
2022-09-15T01:24:45.586Z,99023.00
2022-09-15T01:25:27.641Z,99020.03
2022-09-15T01:26:26.902Z,99025.84
2022-09-15T01:27:30.606Z,99019.50
2022-09-15T01:28:18.972Z,99015.31
2022-09-15T01:29:04.157Z,99014.69
2022-09-15T01:29:52.891Z,99015.97
2022-09-15T01:30:42.649Z,99013.47
2022-09-15T01:31:34.988Z,99007.47
2022-09-15T01:32:26.383Z,99014.31
2022-09-15T01:33:07.111Z,99014.31
2022-09-15T01:34:13.723Z,99004.25
2022-09-15T01:35:07.125Z,99013.47
2022-09-15T01:35:47.636Z,99009.78
2022-09-15T01:36:53.109Z,99006.28
2022-09-15T01:37:47.384Z,99001.94
2022-09-15T01:38:55.176Z,99010.63
2022-09-15T01:39:46.571Z,99005.84
2022-09-15T01:40:38.203Z,99003.63
2022-09-15T01:41:46.994Z,99009.69
2022-09-15T01:42:40.447Z,99008.13
2022-09-15T01:43:33.042Z,99004.44
2022-09-15T01:44:22.603Z,99001.31
2022-09-15T01:45:11.879Z,98997.41
2022-09-15T01:46:03.638Z,99009.69
2022-09-15T01:46:58.419Z,99008.97
2022-09-15T01:47:51.650Z,99006.47
2022-09-15T01:48:45.282Z,98995.94
2022-09-15T01:49:35.519Z,98998.63
2022-09-15T01:50:25.558Z,99002.31
2022-09-15T01:51:17.190Z,98996.78
2022-09-15T01:52:13.430Z,98998.97
2022-09-15T01:53:02.252Z,98999.44
2022-09-15T01:53:49.841Z,98993.91
2022-09-15T01:54:39.692Z,98994.09
2022-09-15T01:55:36.070Z,98993.28
2022-09-15T01:56:27.006Z,99001.59
2022-09-15T01:57:24.360Z,99006.13
2022-09-15T01:58:16.659Z,99007.94
2022-09-15T01:59:08.645Z,99009.16
2022-09-15T02:00:00.169Z,99008.69
2022-09-15T02:00:53.057Z,99007.66
2022-09-15T02:01:36.381Z,99002.97
2022-09-15T02:02:33.306Z,98999.97
2022-09-15T02:03:30.840Z,99004.97
2022-09-15T02:04:33.783Z,99002.78
2022-09-15T02:05:24.478Z,98997.97
2022-09-15T02:06:15.207Z,99000.84
2022-09-15T02:07:08.776Z,98989.97
2022-09-15T02:08:41.258Z,99001.47
2022-09-15T02:09:24.053Z,99001.13
2022-09-15T02:10:30.684Z,99007.28
2022-09-15T02:11:15.295Z,99010.31
2022-09-15T02:12:12.574Z,99013.00
2022-09-15T02:13:00.992Z,99003.97
2022-09-15T02:13:46.334Z,99004.78
2022-09-15T02:14:57.622Z,99007.00
2022-09-15T02:15:56.717Z,99003.16
2022-09-15T02:16:48.478Z,98998.81
2022-09-15T02:17:37.591Z,98999.63
2022-09-15T02:18:27.394Z,98998.97
2022-09-15T02:19:09.846Z,99008.69
2022-09-15T02:20:12.194Z,99004.78
2022-09-15T02:21:05.299Z,98997.81
2022-09-15T02:21:59.866Z,98999.28
2022-09-15T02:22:49.045Z,99006.47
2022-09-15T02:23:43.196Z,98999.63
2022-09-15T02:24:32.677Z,99006.00
2022-09-15T02:25:26.879Z,98999.63
2022-09-15T02:26:28.464Z,99004.78
2022-09-15T02:27:19.781Z,98997.63
2022-09-15T02:28:10.259Z,98999.63
2022-09-15T02:29:03.777Z,99003.97
2022-09-15T02:29:54.946Z,99002.59
2022-09-15T02:30:48.386Z,99003.81
2022-09-15T02:31:43.438Z,99004.97
2022-09-15T02:32:32.735Z,99004.97
2022-09-15T02:33:24.318Z,99006.47
2022-09-15T02:34:13.779Z,99005.66
2022-09-15T02:35:07.258Z,99002.31
2022-09-15T02:35:59.171Z,99013.84
2022-09-15T02:36:58.584Z,99010.16
2022-09-15T02:37:50.268Z,99009.50
2022-09-15T02:38:41.412Z,99010.31
2022-09-15T02:39:32.361Z,99010.31
2022-09-15T02:40:22.190Z,99004.78
2022-09-15T02:41:14.820Z,99014.22
2022-09-15T02:42:09.703Z,99011.34
2022-09-15T02:43:12.141Z,99013.00
2022-09-15T02:44:03.787Z,99015.03
2022-09-15T02:44:56.805Z,99013.34
2022-09-15T02:45:51.968Z,99012.00
2022-09-15T02:46:47.751Z,99013.00
2022-09-15T02:47:45.271Z,99020.03
2022-09-15T02:48:36.731Z,99013.84
2022-09-15T02:49:28.419Z,99014.03
2022-09-15T02:50:19.165Z,99008.50
2022-09-15T02:51:11.005Z,99009.50
2022-09-15T02:52:01.811Z,99016.72
2022-09-15T02:53:56.792Z,99008.31
2022-09-15T02:54:49.881Z,99013.00
2022-09-15T02:55:42.384Z,99020.19
2022-09-15T02:56:33.233Z,99019.19
2022-09-15T02:57:30.228Z,99020.66
2022-09-15T02:58:26.418Z,99011.19
2022-09-15T02:59:18.854Z,99013.00
2022-09-15T03:00:10.094Z,99012.00
2022-09-15T03:01:04.371Z,99009.69
2022-09-15T03:01:59.596Z,99016.22
2022-09-15T03:02:52.405Z,99012.00
2022-09-15T03:03:45.300Z,99008.00
2022-09-15T03:04:37.769Z,99005.34
2022-09-15T03:05:31.667Z,99010.31
2022-09-15T03:06:24.729Z,99007.00
2022-09-15T03:08:23.846Z,99016.72
2022-09-15T03:09:14.315Z,99012.19
2022-09-15T03:10:04.720Z,99008.69
2022-09-15T03:10:56.279Z,99014.22
2022-09-15T03:11:49.508Z,99013.34
2022-09-15T03:12:46.632Z,99010.03
2022-09-15T03:13:35.951Z,99015.03
2022-09-15T03:14:25.945Z,99016.03
2022-09-15T03:15:14.083Z,99015.84
2022-09-15T03:16:02.868Z,99016.03
2022-09-15T03:16:57.350Z,99012.53
2022-09-15T03:17:47.296Z,99019.38
2022-09-15T03:18:36.729Z,99014.38
2022-09-15T03:19:28.965Z,99022.88
2022-09-15T03:20:20.345Z,99017.88
2022-09-15T03:21:11.027Z,99018.53
2022-09-15T03:22:08.335Z,99015.69
2022-09-15T03:22:58.557Z,99018.34
2022-09-15T03:23:50.756Z,99020.19
2022-09-15T03:24:43.202Z,99016.72
2022-09-15T03:25:37.081Z,99025.72
2022-09-15T03:26:30.873Z,99017.88
2022-09-15T03:28:27.778Z,99019.72
2022-09-15T03:29:21.638Z,99026.72
2022-09-15T03:30:13.066Z,99022.41
2022-09-15T03:31:05.174Z,99027.75
2022-09-15T03:31:58.052Z,99017.06
2022-09-15T03:33:53.317Z,99023.22
2022-09-15T03:34:44.921Z,99021.19
2022-09-15T03:35:37.156Z,99021.88
2022-09-15T03:36:30.429Z,99025.09
2022-09-15T03:37:27.827Z,99024.72
2022-09-15T03:38:25.582Z,99023.06
2022-09-15T03:39:18.922Z,99030.09
2022-09-15T03:40:11.612Z,99024.56
2022-09-15T03:41:14.109Z,99028.41
2022-09-15T03:42:07.835Z,99028.06
2022-09-15T03:43:07.745Z,99025.72
2022-09-15T03:43:56.845Z,99034.41
2022-09-15T03:44:47.074Z,99027.75
2022-09-15T03:45:35.918Z,99024.72
2022-09-15T03:46:24.997Z,99031.09
2022-09-15T03:47:13.746Z,99028.22
2022-09-15T03:48:09.342Z,99027.41
2022-09-15T03:49:08.213Z,99029.41
2022-09-15T03:50:01.048Z,99031.09
2022-09-15T03:50:54.952Z,99026.25
2022-09-15T03:51:49.146Z,99025.91
2022-09-15T03:52:48.505Z,99025.72
2022-09-15T03:53:41.650Z,99021.88
2022-09-15T03:54:34.361Z,99020.03
2022-09-15T03:55:28.526Z,99024.06
2022-09-15T03:56:25.451Z,99026.56
2022-09-15T03:57:18.529Z,99023.22
2022-09-15T03:59:13.370Z,99030.25
2022-09-15T04:01:02.974Z,99026.91
2022-09-15T04:01:59.590Z,99030.59
2022-09-15T04:02:52.493Z,99026.91
2022-09-15T04:03:50.147Z,99028.41
2022-09-15T04:04:42.654Z,99026.56
2022-09-15T04:05:33.644Z,99032.06
2022-09-15T04:06:26.350Z,99031.09
2022-09-15T04:08:26.173Z,99023.06
2022-09-15T04:09:20.399Z,99020.56
2022-09-15T04:10:11.207Z,99025.09
2022-09-15T04:11:04.437Z,99023.06
2022-09-15T04:11:59.141Z,99019.72
2022-09-15T04:12:52.065Z,99027.09
2022-09-15T04:13:45.217Z,99025.09
2022-09-15T04:14:38.323Z,99029.41
2022-09-15T04:15:34.939Z,99021.91
2022-09-15T04:16:26.557Z,99026.09
2022-09-15T04:18:20.692Z,99016.22
2022-09-15T04:19:14.710Z,99016.38
2022-09-15T04:20:06.935Z,99021.56
2022-09-15T04:20:59.735Z,99013.72
2022-09-15T04:21:57.536Z,99021.38
2022-09-15T04:22:50.946Z,99020.56
2022-09-15T04:23:44.345Z,99020.38
2022-09-15T04:24:37.072Z,99013.34
2022-09-15T04:25:29.367Z,99013.19
2022-09-15T04:26:21.815Z,99012.34
2022-09-15T04:28:15.639Z,99019.56
2022-09-15T04:29:06.281Z,99023.22
2022-09-15T04:29:55.456Z,99021.19
2022-09-15T04:30:46.135Z,99017.88
2022-09-15T04:31:36.292Z,99029.75
2022-09-15T04:32:34.878Z,99025.91
2022-09-15T04:33:29.171Z,99018.69
2022-09-15T04:34:20.888Z,99023.22
2022-09-15T04:35:11.749Z,99026.72
2022-09-15T04:36:04.572Z,99025.09
2022-09-15T04:36:58.406Z,99020.72
2022-09-15T04:38:53.624Z,99031.44
2022-09-15T04:39:45.522Z,99029.09
2022-09-15T04:40:40.026Z,99026.44
2022-09-15T04:41:34.224Z,99031.59
2022-09-15T04:42:32.053Z,99026.59
2022-09-15T04:43:25.423Z,99032.81
2022-09-15T04:44:18.389Z,99034.47
2022-09-15T04:45:11.565Z,99030.13
2022-09-15T04:46:06.276Z,99035.50
2022-09-15T04:47:00.075Z,99031.78
2022-09-15T04:48:59.335Z,99035.84
2022-09-15T04:49:51.573Z,99031.78
2022-09-15T04:50:46.414Z,99033.81
2022-09-15T04:51:41.790Z,99028.28
2022-09-15T04:52:39.379Z,99022.94
2022-09-15T04:53:33.226Z,99028.09
2022-09-15T04:54:26.239Z,99027.09
2022-09-15T04:55:22.137Z,99028.09
2022-09-15T04:56:23.277Z,99028.09
2022-09-15T04:57:15.812Z,99034.28
2022-09-15T04:58:15.166Z,99034.75
2022-09-15T04:59:07.136Z,99029.75
2022-09-15T04:59:57.741Z,99030.44
2022-09-15T05:01:02.052Z,99033.09
2022-09-15T05:01:55.321Z,99028.09
2022-09-15T05:02:46.735Z,99028.75
2022-09-15T05:03:42.152Z,99032.59
2022-09-15T05:04:33.263Z,99034.09
2022-09-15T05:05:25.234Z,99039.47
2022-09-15T05:06:19.062Z,99029.59
2022-09-15T05:07:12.612Z,99034.28
2022-09-15T05:08:05.800Z,99042.47
2022-09-15T05:08:59.072Z,99031.97
2022-09-15T05:09:50.239Z,99028.63
2022-09-15T05:10:41.249Z,99035.50
2022-09-15T05:11:32.359Z,99033.47
2022-09-15T05:12:23.715Z,99026.44
2022-09-15T05:13:14.256Z,99032.25
2022-09-15T05:14:12.727Z,99039.00
2022-09-15T05:15:05.958Z,99034.28
2022-09-15T05:15:57.740Z,99031.78
2022-09-15T05:16:52.044Z,99032.44
2022-09-15T05:17:43.261Z,99032.59
2022-09-15T05:18:33.343Z,99034.28
2022-09-15T05:19:28.224Z,99031.78
2022-09-15T05:20:18.205Z,99040.63
2022-09-15T05:21:16.653Z,99043.31
2022-09-15T05:22:10.850Z,99038.81
2022-09-15T05:23:04.285Z,99033.47
2022-09-15T05:23:55.109Z,99034.56
2022-09-15T05:25:49.737Z,99034.09
2022-09-15T05:26:42.173Z,99034.75
2022-09-15T05:27:35.050Z,99034.09
2022-09-15T05:28:31.031Z,99035.09
2022-09-15T05:29:27.248Z,99032.44
2022-09-15T05:31:27.893Z,99030.44
2022-09-15T05:32:19.069Z,99031.25
2022-09-15T05:33:14.119Z,99034.94
2022-09-15T05:34:04.551Z,99034.28
2022-09-15T05:34:56.531Z,99042.13
2022-09-15T05:35:47.730Z,99037.13
2022-09-15T05:36:39.168Z,99034.47
2022-09-15T05:37:30.757Z,99033.47
2022-09-15T05:38:30.093Z,99039.81
2022-09-15T05:39:23.820Z,99041.31
2022-09-15T05:40:16.116Z,99037.78
2022-09-15T05:41:09.153Z,99035.50
2022-09-15T05:42:02.062Z,99047.84
2022-09-15T05:42:54.233Z,99041.47
2022-09-15T05:43:53.025Z,99040.63
2022-09-15T05:44:42.319Z,99042.47
2022-09-15T05:45:34.797Z,99049.84
2022-09-15T05:46:24.569Z,99047.19
2022-09-15T05:47:16.349Z,99043.31
2022-09-15T05:48:09.145Z,99047.66
2022-09-15T05:49:06.786Z,99047.00
2022-09-15T05:50:01.344Z,99045.34
2022-09-15T05:50:58.543Z,99047.34
2022-09-15T05:51:53.612Z,99052.72
2022-09-15T05:52:46.746Z,99047.34
2022-09-15T05:53:41.377Z,99051.88
2022-09-15T05:55:39.920Z,99051.88
2022-09-15T05:56:32.242Z,99046.53
2022-09-15T05:57:25.910Z,99051.31
2022-09-15T05:58:17.737Z,99047.19
2022-09-15T05:59:15.500Z,99052.34
2022-09-15T06:00:12.957Z,99052.19
2022-09-15T06:01:05.872Z,99050.84
2022-09-15T06:01:58.740Z,99055.03
2022-09-15T06:02:51.924Z,99055.03
2022-09-15T06:03:44.033Z,99057.72
2022-09-15T06:04:40.896Z,99052.53
2022-09-15T06:05:35.315Z,99044.50
2022-09-15T06:06:28.716Z,99052.19
2022-09-15T06:07:22.043Z,99057.34
2022-09-15T06:08:15.771Z,99054.84
2022-09-15T06:09:05.513Z,99051.53
2022-09-15T06:10:01.007Z,99052.34
2022-09-15T06:10:52.161Z,99053.34
2022-09-15T06:11:43.031Z,99050.69
2022-09-15T06:12:34.195Z,99055.50
2022-09-15T06:13:25.687Z,99051.16
2022-09-15T06:14:20.713Z,99052.84
2022-09-15T06:15:09.985Z,99052.00
2022-09-15T06:15:59.784Z,99051.16
2022-09-15T06:16:48.815Z,99053.19
2022-09-15T06:17:39.284Z,99050.34
2022-09-15T06:18:29.204Z,99056.50
2022-09-15T06:19:21.924Z,99057.53
2022-09-15T06:20:11.912Z,99061.84
2022-09-15T06:21:02.686Z,99057.34
2022-09-15T06:21:52.629Z,99059.19
2022-09-15T06:22:44.208Z,99063.69
2022-09-15T06:23:35.034Z,99059.56
2022-09-15T06:24:32.292Z,99055.22
2022-09-15T06:25:22.869Z,99062.72
2022-09-15T06:26:15.741Z,99062.72
2022-09-15T06:27:05.514Z,99062.88
2022-09-15T06:27:54.403Z,99072.06
2022-09-15T06:28:46.018Z,99067.19
2022-09-15T06:29:40.315Z,99068.06
2022-09-15T06:30:31.150Z,99076.91
2022-09-15T06:31:22.566Z,99074.41
2022-09-15T06:32:12.992Z,99078.28
2022-09-15T06:33:02.166Z,99080.97
2022-09-15T06:33:54.605Z,99086.47
2022-09-15T06:34:51.601Z,99079.94
2022-09-15T06:35:44.725Z,99082.59
2022-09-15T06:36:35.448Z,99085.28
2022-09-15T06:37:27.514Z,99074.94
2022-09-15T06:38:20.278Z,99085.28
2022-09-15T06:39:14.099Z,99085.28
2022-09-15T06:40:11.144Z,99082.66
2022-09-15T06:41:11.103Z,99085.81
2022-09-15T06:42:05.902Z,99084.81
2022-09-15T06:42:57.711Z,99092.81
2022-09-15T06:43:50.377Z,99090.97
2022-09-15T06:44:42.076Z,99084.63
2022-09-15T06:45:40.522Z,99087.13
2022-09-15T06:46:35.100Z,99088.78
2022-09-15T06:47:28.361Z,99091.66
2022-09-15T06:48:24.841Z,99091.44
2022-09-15T06:49:15.183Z,99098.00
2022-09-15T06:50:06.930Z,99097.66
2022-09-15T06:52:00.595Z,99092.31
2022-09-15T06:52:52.237Z,99093.66
2022-09-15T06:53:48.110Z,99100.84
2022-09-15T06:54:39.804Z,99102.34
2022-09-15T06:55:32.213Z,99095.16
2022-09-15T06:56:24.513Z,99102.69
2022-09-15T06:57:16.365Z,99105.19
2022-09-15T06:58:09.450Z,99095.50
2022-09-15T06:59:10.428Z,99103.34
2022-09-15T07:01:05.760Z,99097.53
2022-09-15T07:02:00.334Z,99105.84
2022-09-15T07:02:56.979Z,99104.16
2022-09-15T07:03:50.033Z,99105.38
2022-09-15T07:04:48.983Z,99100.31
2022-09-15T07:05:43.158Z,99101.31
2022-09-15T07:06:35.660Z,99103.00
2022-09-15T07:07:29.279Z,99110.56
2022-09-15T07:08:22.554Z,99112.38
2022-09-15T07:09:18.662Z,99111.19
2022-09-15T07:10:10.865Z,99111.53
2022-09-15T07:11:04.148Z,99115.72
2022-09-15T07:11:57.393Z,99111.38
2022-09-15T07:12:50.774Z,99118.41
2022-09-15T07:13:42.268Z,99106.19
2022-09-15T07:14:40.194Z,99115.72
2022-09-15T07:15:35.920Z,99116.72
2022-09-15T07:16:33.511Z,99116.91
2022-09-15T07:17:25.991Z,99117.72
2022-09-15T07:18:17.897Z,99128.41
2022-09-15T07:19:07.961Z,99128.41
2022-09-15T07:20:00.898Z,99130.28
2022-09-15T07:20:52.231Z,99129.28
2022-09-15T07:22:47.172Z,99121.06
2022-09-15T07:23:41.604Z,99132.13
2022-09-15T07:24:34.558Z,99132.78
2022-09-15T07:25:27.486Z,99129.09
2022-09-15T07:26:16.364Z,99125.09
2022-09-15T07:27:13.589Z,99134.44
2022-09-15T07:28:05.866Z,99127.41
2022-09-15T07:28:55.082Z,99131.78
2022-09-15T07:29:45.593Z,99134.63
2022-09-15T07:30:41.816Z,99130.28
2022-09-15T07:31:33.594Z,99130.63
2022-09-15T07:32:32.580Z,99135.78
2022-09-15T07:33:23.682Z,99134.78
2022-09-15T07:34:14.535Z,99129.28
2022-09-15T07:35:03.918Z,99127.13
2022-09-15T07:35:53.440Z,99133.75
2022-09-15T07:36:50.059Z,99135.78
2022-09-15T07:37:46.227Z,99130.28
2022-09-15T07:38:37.436Z,99135.44
2022-09-15T07:39:30.578Z,99136.44
2022-09-15T07:40:21.466Z,99135.78
2022-09-15T07:41:17.864Z,99136.63
2022-09-15T07:42:11.807Z,99139.59
2022-09-15T07:44:03.845Z,99133.94
2022-09-15T07:44:55.173Z,99132.28
2022-09-15T07:45:49.334Z,99140.31
2022-09-15T07:46:46.598Z,99141.78
2022-09-15T07:47:35.943Z,99139.13
2022-09-15T07:48:28.947Z,99143.47
2022-09-15T07:49:19.722Z,99145.50
2022-09-15T07:50:08.789Z,99148.00
2022-09-15T07:50:58.471Z,99148.34
2022-09-15T07:51:50.292Z,99147.47
2022-09-15T07:52:40.207Z,99142.13
2022-09-15T07:53:34.759Z,99140.78
2022-09-15T07:54:24.974Z,99142.81
2022-09-15T07:55:18.257Z,99153.34
2022-09-15T07:56:10.739Z,99147.31
2022-09-15T07:57:04.843Z,99151.97
2022-09-15T07:58:48.769Z,99153.00
2022-09-15T07:59:43.400Z,99156.72
2022-09-15T08:00:37.720Z,99162.53
2022-09-15T08:01:28.909Z,99161.53
2022-09-15T08:02:27.341Z,99158.69
2022-09-15T08:03:18.908Z,99160.16
2022-09-15T08:04:09.600Z,99160.16
2022-09-15T08:05:01.038Z,99156.03
2022-09-15T08:05:53.375Z,99160.34
2022-09-15T08:06:49.485Z,99155.63
2022-09-15T08:07:42.245Z,99157.50
2022-09-15T08:08:36.203Z,99151.50
2022-09-15T08:09:28.701Z,99153.34
2022-09-15T08:10:20.325Z,99165.84
2022-09-15T08:11:18.418Z,99155.16
2022-09-15T08:13:15.828Z,99158.53
2022-09-15T08:14:07.073Z,99162.34
2022-09-15T08:14:59.920Z,99154.34
2022-09-15T08:15:52.973Z,99166.53
2022-09-15T08:16:46.138Z,99156.19
2022-09-15T08:17:40.057Z,99159.69
2022-09-15T08:18:29.970Z,99154.34
2022-09-15T08:19:20.597Z,99163.34
2022-09-15T08:20:09.514Z,99153.84
2022-09-15T08:20:59.453Z,99158.88
2022-09-15T08:21:49.404Z,99153.16
2022-09-15T08:22:43.485Z,99161.84
2022-09-15T08:23:33.939Z,99149.47
2022-09-15T08:24:25.160Z,99161.38
2022-09-15T08:25:13.986Z,99163.19
2022-09-15T08:26:01.678Z,99156.84
2022-09-15T08:26:50.487Z,99155.16
2022-09-15T08:27:46.732Z,99160.50
2022-09-15T08:28:36.594Z,99163.34
2022-09-15T08:29:29.116Z,99170.56
2022-09-15T08:30:17.284Z,99170.38
2022-09-15T08:31:12.459Z,99171.03
2022-09-15T08:32:02.362Z,99173.53
2022-09-15T08:32:59.251Z,99170.56
2022-09-15T08:33:51.903Z,99168.22
2022-09-15T08:34:41.716Z,99166.19
2022-09-15T08:35:31.936Z,99171.56
2022-09-15T08:36:21.869Z,99173.72
2022-09-15T08:37:11.017Z,99168.38
2022-09-15T08:38:03.639Z,99168.88
2022-09-15T08:38:53.300Z,99170.22
2022-09-15T08:39:46.173Z,99167.88
2022-09-15T08:40:36.990Z,99164.22
2022-09-15T08:41:31.895Z,99173.88
2022-09-15T08:42:24.969Z,99179.22
2022-09-15T08:43:19.612Z,99174.91
2022-09-15T08:44:23.986Z,99177.25
2022-09-15T08:45:13.803Z,99173.72
2022-09-15T08:46:04.238Z,99176.91
2022-09-15T08:47:05.225Z,99185.59
2022-09-15T08:47:56.200Z,99179.41
2022-09-15T08:48:50.652Z,99183.94
2022-09-15T08:49:53.935Z,99179.56
2022-09-15T08:50:48.747Z,99189.94
2022-09-15T08:51:44.491Z,99182.75
2022-09-15T08:52:47.136Z,99189.59
2022-09-15T08:53:43.415Z,99181.56
2022-09-15T08:54:32.903Z,99183.94
2022-09-15T08:55:24.315Z,99182.75
2022-09-15T08:56:17.003Z,99183.59
2022-09-15T08:58:17.582Z,99193.47
2022-09-15T08:59:09.211Z,99189.75
2022-09-15T09:00:01.719Z,99194.13
2022-09-15T09:01:16.625Z,99186.09
2022-09-15T09:02:19.722Z,99200.28
2022-09-15T09:03:27.065Z,99184.41
2022-09-15T09:04:16.384Z,99189.94
2022-09-15T09:05:00.044Z,99197.78
2022-09-15T09:05:42.431Z,99194.94
2022-09-15T09:06:37.192Z,99191.59
2022-09-15T09:07:21.194Z,99196.97
2022-09-15T09:08:13.971Z,99196.31
2022-09-15T09:09:14.573Z,99193.63
2022-09-15T09:10:06.069Z,99192.59
2022-09-15T09:11:06.395Z,99194.13
2022-09-15T09:11:58.088Z,99195.59
2022-09-15T09:13:02.034Z,99200.13
2022-09-15T09:14:06.849Z,99199.63
2022-09-15T09:15:12.448Z,99194.28
2022-09-15T09:15:57.717Z,99196.78
2022-09-15T09:16:56.908Z,99200.28
2022-09-15T09:17:38.483Z,99195.44
2022-09-15T09:18:36.665Z,99191.13
2022-09-15T09:19:31.362Z,99196.47
2022-09-15T09:20:17.888Z,99193.63
2022-09-15T09:21:04.349Z,99188.94
2022-09-15T09:21:55.324Z,99192.44
2022-09-15T09:22:53.768Z,99193.28
2022-09-15T09:23:44.748Z,99193.81
2022-09-15T09:25:05.896Z,99199.63
2022-09-15T09:26:08.621Z,99200.28
2022-09-15T09:26:58.747Z,99195.44
2022-09-15T09:27:56.542Z,99194.63
2022-09-15T09:28:47.088Z,99197.97
2022-09-15T09:29:45.591Z,99201.66
2022-09-15T09:30:41.258Z,99198.28
2022-09-15T09:31:29.659Z,99197.97
2022-09-15T09:32:37.980Z,99198.28
2022-09-15T09:33:38.729Z,99205.31
2022-09-15T09:34:46.943Z,99201.66
2022-09-15T09:35:50.261Z,99204.97
2022-09-15T09:36:43.505Z,99199.31
2022-09-15T09:37:35.087Z,99209.69
2022-09-15T09:38:25.795Z,99202.47
2022-09-15T09:39:18.219Z,99210.34
2022-09-15T09:40:09.914Z,99209.50
2022-09-15T09:41:07.741Z,99209.50
2022-09-15T09:42:00.403Z,99208.66
2022-09-15T09:42:53.374Z,99205.81
2022-09-15T09:43:46.037Z,99207.00
2022-09-15T09:44:37.052Z,99213.00
2022-09-15T09:45:31.668Z,99211.31
2022-09-15T09:46:34.306Z,99209.84
2022-09-15T09:47:25.284Z,99213.34
2022-09-15T09:48:16.400Z,99216.03
2022-09-15T09:49:06.331Z,99210.69
2022-09-15T09:49:56.461Z,99215.03
2022-09-15T09:50:47.528Z,99212.34
2022-09-15T09:51:48.873Z,99213.53
2022-09-15T09:52:47.816Z,99215.03
2022-09-15T09:53:37.853Z,99217.03
2022-09-15T09:54:28.933Z,99214.00
2022-09-15T09:55:22.196Z,99211.66
2022-09-15T09:56:21.206Z,99209.84
2022-09-15T09:57:17.527Z,99208.66
2022-09-15T09:58:12.240Z,99213.34
2022-09-15T09:59:04.672Z,99213.53
2022-09-15T10:00:01.368Z,99220.72
2022-09-15T10:00:55.615Z,99222.38
2022-09-15T10:01:49.159Z,99215.19
2022-09-15T10:02:39.042Z,99210.50
2022-09-15T10:03:35.507Z,99219.34
2022-09-15T10:04:27.664Z,99215.69
2022-09-15T10:05:09.032Z,99212.34
2022-09-15T10:05:50.331Z,99204.16
2022-09-15T10:06:44.954Z,99207.81
2022-09-15T10:07:25.000Z,99205.81
2022-09-15T10:08:14.311Z,99204.31
2022-09-15T10:08:56.469Z,99209.84
2022-09-15T10:09:45.810Z,99208.00
2022-09-15T10:10:34.906Z,99203.00
2022-09-15T10:11:22.471Z,99205.31
2022-09-15T10:12:15.874Z,99202.16
2022-09-15T10:13:05.945Z,99206.50
2022-09-15T10:14:01.472Z,99198.13
2022-09-15T10:14:54.029Z,99203.66
2022-09-15T10:15:42.781Z,99201.66
2022-09-15T10:16:34.353Z,99203.31
2022-09-15T10:17:19.640Z,99214.34
2022-09-15T10:18:08.015Z,99210.03
2022-09-15T10:18:58.009Z,99215.38
2022-09-15T10:19:57.511Z,99213.34
2022-09-15T10:20:49.645Z,99207.00
2022-09-15T10:21:46.314Z,99209.34
2022-09-15T10:22:41.525Z,99201.81
2022-09-15T10:23:22.343Z,99197.97
2022-09-15T10:24:18.196Z,99193.63
2022-09-15T10:25:09.782Z,99189.44
2022-09-15T10:26:02.837Z,99200.31
2022-09-15T10:26:59.868Z,99201.66
2022-09-15T10:27:53.252Z,99193.81
2022-09-15T10:28:43.603Z,99191.59
2022-09-15T10:29:33.865Z,99195.44
2022-09-15T10:30:18.465Z,99189.94
2022-09-15T10:31:23.722Z,99187.44
2022-09-15T10:33:33.306Z,99193.47
2022-09-15T10:34:27.537Z,99194.63
2022-09-15T10:35:08.762Z,99188.94
2022-09-15T10:35:56.995Z,99202.47
2022-09-15T10:36:54.420Z,99197.78
2022-09-15T10:37:58.267Z,99205.31
2022-09-15T10:38:45.819Z,99200.63
2022-09-15T10:39:35.076Z,99203.66
2022-09-15T10:40:22.263Z,99203.81
2022-09-15T10:41:15.142Z,99200.31
2022-09-15T10:42:08.166Z,99197.81
2022-09-15T10:43:04.755Z,99192.13
2022-09-15T10:43:55.690Z,99200.16
2022-09-15T10:44:46.075Z,99202.47
2022-09-15T10:45:27.793Z,99195.97
2022-09-15T10:46:15.965Z,99206.50
2022-09-15T10:47:09.211Z,99199.97
2022-09-15T10:48:06.475Z,99203.47
2022-09-15T10:48:48.560Z,99199.97
2022-09-15T10:49:51.267Z,99200.63